Time;durP1;ratioP1;P1;durP2;ratioP2;P2;SDS_P1;SDS_P2;PMS_P1;PMS_P2;Temp;Humidity;BMP_temperature;BMP_pressure;BME280_temperature;BME280_humidity;BME280_pressure;Samples;Min_cycle;Max_cycle;Signal;HPM_P1;HPM_P2
2021/05/03 00:01:06;;;;;;;14.82;9.10;;;;;;;10.37;63.43;99146.81;5072818;28;20036;-54
2021/05/03 00:03:32;;;;;;;12.07;8.25;;;;;;;10.43;62.79;99130.22;5072927;28;20194;-55
2021/05/03 00:05:57;;;;;;;9.95;8.48;;;;;;;10.46;63.45;99129.91;5072544;28;20043;-56
2021/05/03 00:08:24;;;;;;;10.90;8.65;;;;;;;10.46;63.78;99123.72;5072571;28;20122;-57
2021/05/03 00:10:50;;;;;;;11.95;9.30;;;;;;;10.37;63.87;99112.00;5072663;28;20368;-56
2021/05/03 00:13:15;;;;;;;14.57;10.32;;;;;;;10.32;64.49;99107.06;5072843;28;20507;-58
2021/05/03 00:15:41;;;;;;;15.50;9.48;;;;;;;10.39;64.56;99095.81;5072143;28;20036;-54
2021/05/03 00:18:07;;;;;;;12.55;10.32;;;;;;;10.20;65.28;99087.63;5072449;28;20105;-58
2021/05/03 00:20:32;;;;;;;12.65;9.52;;;;;;;10.05;65.43;99075.63;5072893;28;20043;-57
2021/05/03 00:22:58;;;;;;;11.57;8.52;;;;;;;9.81;65.66;99057.31;5072309;28;20047;-56
2021/05/03 00:25:23;;;;;;;12.30;9.70;;;;;;;10.14;65.63;99082.84;5068521;28;20040;-57
2021/05/03 00:27:49;;;;;;;12.10;9.07;;;;;;;10.22;65.84;99068.75;5067806;28;20036;-59
2021/05/03 00:30:15;;;;;;;12.07;9.27;;;;;;;10.09;65.89;99082.41;5069463;28;20029;-58
2021/05/03 00:32:42;;;;;;;11.63;10.10;;;;;;;10.13;66.53;99088.31;5070622;28;20395;-53
2021/05/03 00:35:08;;;;;;;12.73;9.75;;;;;;;10.12;66.54;99079.44;5070414;28;20033;-55
2021/05/03 00:37:33;;;;;;;10.60;8.40;;;;;;;9.89;66.60;99058.34;5069516;28;20072;-54
2021/05/03 00:39:59;;;;;;;11.32;9.40;;;;;;;10.04;66.88;99076.63;5071217;28;20443;-56
2021/05/03 00:42:25;;;;;;;12.20;9.02;;;;;;;9.77;66.99;98997.94;5055215;28;20477;-56
2021/05/03 00:44:51;;;;;;;10.15;9.13;;;;;;;10.03;66.59;99013.44;5052260;28;20029;-59
2021/05/03 00:47:18;;;;;;;12.20;9.70;;;;;;;10.05;66.66;99014.13;5052366;28;20127;-55
2021/05/03 00:49:44;;;;;;;12.43;9.40;;;;;;;9.87;66.99;98964.03;5052079;28;20033;-58
2021/05/03 00:52:11;;;;;;;12.68;9.40;;;;;;;10.09;67.50;99004.00;5052019;28;20036;-58
2021/05/03 00:54:38;;;;;;;10.73;9.43;;;;;;;9.91;67.78;98981.50;5052205;28;20032;-55
2021/05/03 00:57:04;;;;;;;11.05;9.07;;;;;;;9.85;68.03;98984.72;5051807;28;20094;-53
2021/05/03 00:59:29;;;;;;;11.52;9.70;;;;;;;9.91;67.90;98980.63;5051967;28;20029;-57
2021/05/03 01:01:55;;;;;;;14.10;9.15;;;;;;;10.11;68.23;99010.88;5051508;28;20063;-56
2021/05/03 01:04:21;;;;;;;10.45;9.23;;;;;;;10.06;68.17;99002.44;5052238;28;20116;-59
2021/05/03 01:06:46;;;;;;;10.18;9.07;;;;;;;10.09;68.07;98986.13;5051580;28;20126;-58
2021/05/03 01:09:11;;;;;;;11.20;9.05;;;;;;;9.72;68.33;98909.31;5051592;28;20588;-59
2021/05/03 01:11:38;;;;;;;10.77;8.40;;;;;;;10.13;68.71;98976.84;5051650;28;20036;-57
2021/05/03 01:14:04;;;;;;;9.82;8.38;;;;;;;9.62;68.60;98888.75;5051366;28;20045;-53
2021/05/03 01:16:29;;;;;;;10.60;8.77;;;;;;;9.93;69.24;98962.63;5051266;28;20051;-57
2021/05/03 01:18:54;;;;;;;12.65;9.27;;;;;;;9.90;69.33;98947.72;5051418;28;20404;-57
2021/05/03 01:21:28;;;;;;;10.90;8.82;;;;;;;9.99;69.32;98962.03;5052060;28;20090;-57
2021/05/03 01:23:53;;;;;;;9.50;8.50;;;;;;;10.03;69.17;98942.09;5051215;28;20420;-61
2021/05/03 01:26:19;;;;;;;8.45;7.30;;;;;;;9.96;69.90;98956.16;5050393;28;20044;-57
2021/05/03 01:28:45;;;;;;;11.05;8.80;;;;;;;9.91;69.98;98948.56;5051552;28;20072;-58
2021/05/03 01:31:12;;;;;;;10.65;8.32;;;;;;;9.89;70.28;98939.81;5051492;28;20124;-57
2021/05/03 01:33:37;;;;;;;10.18;8.80;;;;;;;9.83;70.24;98938.56;5049912;28;20051;-52
2021/05/03 01:36:03;;;;;;;9.45;8.55;;;;;;;9.95;70.20;98917.03;5051016;28;20119;-55
2021/05/03 01:38:28;;;;;;;10.35;9.05;;;;;;;9.98;70.09;98919.41;5051112;28;20045;-56
2021/05/03 01:40:54;;;;;;;10.50;8.77;;;;;;;10.02;69.91;98928.84;5050674;28;20035;-61
2021/05/03 01:43:24;;;;;;;11.52;8.68;;;;;;;9.98;70.16;98914.91;5050710;28;20040;-54
2021/05/03 01:45:53;;;;;;;10.10;8.00;;;;;;;10.04;69.88;98917.03;5050035;28;20374;-54
2021/05/03 01:48:21;;;;;;;9.43;8.52;;;;;;;9.49;70.43;98826.75;5051062;28;20060;-58
2021/05/03 01:50:47;;;;;;;10.82;9.68;;;;;;;9.84;70.50;98892.13;5051218;28;20035;-54
2021/05/03 01:53:12;;;;;;;10.88;9.07;;;;;;;9.98;70.80;98906.06;5050871;28;20032;-57
2021/05/03 01:55:39;;;;;;;10.68;9.20;;;;;;;9.97;70.13;98893.66;5050895;28;20128;-58
2021/05/03 01:58:06;;;;;;;10.98;9.88;;;;;;;9.97;70.70;98893.66;5050971;28;20041;-50
2021/05/03 02:00:39;;;;;;;9.18;8.27;;;;;;;9.72;70.35;98842.47;5050903;28;20055;-57
2021/05/03 02:03:22;;;;;;;9.30;8.25;;;;;;;10.05;69.98;98886.63;5050690;28;20040;-54
2021/05/03 02:06:00;;;;;;;9.38;8.48;;;;;;;10.05;70.28;98877.75;5050775;28;20025;-52
2021/05/03 02:08:28;;;;;;;9.65;8.50;;;;;;;10.14;70.00;98878.72;5051035;28;20048;-60
2021/05/03 02:10:54;;;;;;;12.13;9.77;;;;;;;9.89;70.19;98817.69;5050766;28;20072;-57
2021/05/03 02:13:21;;;;;;;10.55;9.45;;;;;;;10.07;70.51;98869.59;5050356;28;20128;-58
2021/05/03 02:15:48;;;;;;;11.05;9.13;;;;;;;9.91;70.80;98847.81;5050440;28;20132;-56
2021/05/03 02:18:15;;;;;;;12.50;9.38;;;;;;;9.99;71.00;98854.25;5050921;28;20029;-58
2021/05/03 02:20:42;;;;;;;10.15;9.07;;;;;;;10.12;70.35;98843.25;5050269;28;20029;-56
2021/05/03 02:23:07;;;;;;;11.05;9.93;;;;;;;9.69;70.48;98759.91;5049980;28;20028;-53
2021/05/03 02:25:33;;;;;;;10.32;8.77;;;;;;;10.08;69.45;98781.16;5050048;28;20107;-57
2021/05/03 02:27:59;;;;;;;12.20;9.52;;;;;;;10.36;69.53;98815.97;5050162;28;20515;-55
2021/05/03 02:30:25;;;;;;;10.35;9.35;;;;;;;10.17;69.93;98798.16;5050695;28;20033;-54
2021/05/03 02:32:51;;;;;;;13.40;10.38;;;;;;;10.35;70.00;98800.91;5050138;28;20188;-59
2021/05/03 02:35:20;;;;;;;10.63;9.45;;;;;;;10.08;69.49;98737.56;5050053;28;20041;-56
2021/05/03 02:37:50;;;;;;;8.23;7.13;;;;;;;10.51;69.50;98788.75;5050033;28;20032;-58
2021/05/03 02:40:20;;;;;;;11.85;9.90;;;;;;;10.58;69.09;98780.00;5050111;28;20033;-56
2021/05/03 02:42:49;;;;;;;11.13;9.70;;;;;;;10.50;69.17;98792.44;5050190;28;20483;-57
2021/05/03 02:45:15;;;;;;;8.80;7.93;;;;;;;10.79;68.21;98794.94;5050093;28;20040;-57
2021/05/03 02:47:41;;;;;;;12.45;10.35;;;;;;;10.72;68.68;98775.97;5049822;28;20471;-58
2021/05/03 02:50:08;;;;;;;10.45;9.32;;;;;;;10.68;68.41;98769.22;5049902;28;20036;-57
2021/05/03 02:52:34;;;;;;;11.07;9.98;;;;;;;10.55;69.48;98748.19;5050268;28;20072;-57
2021/05/03 02:55:00;;;;;;;11.40;10.15;;;;;;;10.37;69.79;98740.09;5054224;28;20069;-57
2021/05/03 02:57:26;;;;;;;11.00;9.90;;;;;;;10.34;70.08;98743.03;5054755;28;20037;-52
2021/05/03 02:59:51;;;;;;;11.13;10.02;;;;;;;10.42;69.92;98735.16;5054212;28;20542;-54
2021/05/03 03:02:17;;;;;;;10.68;9.57;;;;;;;10.53;69.67;98741.28;5053854;28;20047;-56
2021/05/03 03:04:42;;;;;;;10.57;9.48;;;;;;;10.73;69.11;98739.31;5053982;28;20098;-56
2021/05/03 03:07:08;;;;;;;11.80;10.52;;;;;;;10.54;69.48;98713.53;5054205;28;20120;-59
2021/05/03 03:09:33;;;;;;;13.50;9.98;;;;;;;10.62;69.39;98735.03;5053981;28;20075;-58
2021/05/03 03:12:00;;;;;;;11.95;10.60;;;;;;;10.79;69.27;98711.94;5054037;28;20036;-56
2021/05/03 03:14:26;;;;;;;11.55;10.43;;;;;;;10.73;69.34;98709.84;5054289;28;20093;-58
2021/05/03 03:16:51;;;;;;;13.35;9.88;;;;;;;10.83;69.13;98707.09;5053704;28;20146;-58
2021/05/03 03:19:17;;;;;;;11.15;10.05;;;;;;;10.61;69.56;98683.31;5053264;28;20052;-59
2021/05/03 03:21:42;;;;;;;10.30;9.30;;;;;;;10.80;69.04;98694.03;5053798;28;20037;-55
2021/05/03 03:24:09;;;;;;;11.38;10.20;;;;;;;10.75;69.16;98705.22;5053843;28;20812;-58
2021/05/03 03:26:34;;;;;;;11.88;10.68;;;;;;;10.71;69.36;98687.75;5053505;28;20044;-57
2021/05/03 03:29:00;;;;;;;12.00;10.82;;;;;;;10.71;69.71;98683.25;5053797;28;20167;-60
2021/05/03 03:31:25;;;;;;;12.45;11.25;;;;;;;10.70;69.89;98661.97;5053998;28;20404;-57
2021/05/03 03:33:51;;;;;;;13.93;11.45;;;;;;;10.73;69.42;98665.19;5053420;28;20078;-56
2021/05/03 03:36:16;;;;;;;13.00;10.52;;;;;;;10.65;69.64;98650.91;5053363;28;20067;-58
2021/05/03 03:38:42;;;;;;;12.30;11.10;;;;;;;10.62;69.63;98647.53;5053385;28;20055;-54
2021/05/03 03:41:07;;;;;;;14.23;11.70;;;;;;;10.66;69.64;98641.88;5053484;28;20039;-57
2021/05/03 03:43:33;;;;;;;12.82;11.52;;;;;;;10.80;68.99;98627.09;5053345;28;20485;-58
2021/05/03 03:45:58;;;;;;;14.27;12.25;;;;;;;10.75;69.05;98625.72;5053526;28;20123;-56
2021/05/03 03:48:24;;;;;;;11.88;10.73;;;;;;;10.71;69.65;98624.38;5052982;28;20040;-56
2021/05/03 03:50:49;;;;;;;14.75;11.15;;;;;;;10.76;69.93;98635.44;5051162;28;20039;-58
2021/05/03 03:53:15;;;;;;;14.02;11.70;;;;;;;10.78;69.46;98629.94;5070014;28;20380;-58
2021/05/03 03:55:40;;;;;;;13.48;12.13;;;;;;;10.76;70.05;98638.13;5070494;28;20036;-58
2021/05/03 03:58:06;;;;;;;14.27;12.88;;;;;;;10.68;70.29;98610.44;5071764;28;20036;-59
2021/05/03 04:00:31;;;;;;;14.05;12.68;;;;;;;10.77;70.25;98622.91;5072911;28;20032;-60
2021/05/03 04:02:58;;;;;;;13.95;12.65;;;;;;;10.60;70.85;98589.78;5073654;28;20039;-58
2021/05/03 04:08:20;;;;;;;15.30;13.40;;;;;;;10.83;70.09;98590.16;5072887;28;20036;-60
2021/05/03 04:24:55;;;;;;;16.50;14.80;;;;;;;10.73;70.61;98568.81;5072709;28;20055;-58
2021/05/03 04:27:21;;;;;;;18.33;16.10;;;;;;;10.56;70.90;98524.19;5072344;28;20134;-56
2021/05/03 04:29:47;;;;;;;17.58;15.13;;;;;;;10.72;71.15;98544.88;5072303;28;20060;-57
2021/05/03 04:32:13;;;;;;;16.38;14.70;;;;;;;10.70;71.17;98536.16;5072578;28;20033;-56
2021/05/03 04:34:38;;;;;;;18.27;14.43;;;;;;;10.73;71.16;98530.50;5072138;28;20577;-51
2021/05/03 04:37:04;;;;;;;17.40;15.60;;;;;;;10.77;71.13;98531.88;5072353;28;20048;-53
2021/05/03 04:39:29;;;;;;;17.65;15.77;;;;;;;10.70;71.39;98520.97;5071234;28;20130;-55
2021/05/03 04:41:55;;;;;;;18.20;14.88;;;;;;;10.76;70.92;98525.69;5071873;28;20037;-57
2021/05/03 04:44:20;;;;;;;18.20;15.88;;;;;;;10.66;71.17;98497.31;5072337;28;20088;-50
2021/05/03 04:46:45;;;;;;;17.85;15.13;;;;;;;10.19;71.73;98427.06;5071950;28;20037;-53
2021/05/03 04:49:11;;;;;;;17.08;15.35;;;;;;;10.70;71.56;98523.63;5071983;28;20377;-55
2021/05/03 04:51:36;;;;;;;17.77;15.98;;;;;;;10.74;71.50;98495.56;5072109;28;20036;-56
2021/05/03 04:54:02;;;;;;;18.40;15.70;;;;;;;10.83;71.29;98498.25;5072362;28;20037;-58
2021/05/03 04:56:27;;;;;;;18.10;16.20;;;;;;;10.88;70.48;98478.06;5071856;28;20606;-53
2021/05/03 04:58:53;;;;;;;19.08;16.70;;;;;;;10.85;71.07;98485.56;5071681;28;20495;-58
2021/05/03 05:01:18;;;;;;;18.58;16.63;;;;;;;10.89;70.69;98470.88;5071965;28;20127;-58
2021/05/03 05:03:44;;;;;;;18.80;16.83;;;;;;;10.95;70.56;98464.88;5071507;28;20158;-59
2021/05/03 05:06:09;;;;;;;17.80;16.00;;;;;;;10.97;70.95;98470.91;5071599;28;20059;-60
2021/05/03 05:08:35;;;;;;;17.95;16.05;;;;;;;11.05;70.50;98470.94;5071635;28;20515;-61
2021/05/03 05:11:00;;;;;;;18.85;16.10;;;;;;;11.01;70.87;98466.91;5072016;28;20394;-59
2021/05/03 05:13:26;;;;;;;17.67;15.88;;;;;;;11.05;70.59;98460.22;5071213;28;20083;-57
2021/05/03 05:15:51;;;;;;;17.10;15.30;;;;;;;11.15;70.49;98453.91;5071123;28;20483;-60
2021/05/03 05:18:17;;;;;;;17.30;15.50;;;;;;;11.14;70.53;98471.00;5071599;28;20040;-59
2021/05/03 05:20:43;;;;;;;15.60;14.00;;;;;;;11.05;70.65;98449.50;5071521;28;20575;-59
2021/05/03 05:23:09;;;;;;;16.25;14.60;;;;;;;11.20;70.59;98467.66;5071222;28;20480;-57
2021/05/03 05:25:35;;;;;;;16.70;15.00;;;;;;;11.29;70.36;98433.69;5071349;28;20072;-59
2021/05/03 05:28:01;;;;;;;15.63;14.13;;;;;;;11.21;70.77;98437.19;5071387;28;20040;-58
2021/05/03 05:30:27;;;;;;;16.98;14.20;;;;;;;11.26;70.70;98421.47;5071437;28;20055;-59
2021/05/03 05:32:52;;;;;;;16.48;14.85;;;;;;;11.23;71.17;98434.38;5071089;28;20540;-58
2021/05/03 05:35:18;;;;;;;16.17;14.57;;;;;;;10.82;70.92;98339.47;5070765;28;20044;-60
2021/05/03 05:37:43;;;;;;;15.05;13.45;;;;;;;11.13;71.20;98368.34;5070906;28;20098;-58
2021/05/03 05:40:10;;;;;;;15.82;14.05;;;;;;;11.29;71.23;98388.97;5070941;28;20569;-60
2021/05/03 05:42:36;;;;;;;15.60;14.00;;;;;;;11.28;71.68;98383.81;5071144;28;20115;-58
2021/05/03 05:45:02;;;;;;;16.23;13.35;;;;;;;11.15;71.86;98389.63;5070775;28;20442;-53
2021/05/03 05:47:28;;;;;;;15.68;13.27;;;;;;;10.87;72.20;98323.75;5071019;28;20037;-56
2021/05/03 05:49:53;;;;;;;14.63;13.05;;;;;;;11.24;72.47;98380.59;5070877;28;20059;-54
2021/05/03 05:52:19;;;;;;;14.63;13.23;;;;;;;11.28;72.14;98357.84;5070834;28;20054;-60
2021/05/03 05:54:44;;;;;;;12.48;10.90;;;;;;;11.27;71.96;98358.84;5070431;28;20040;-55
2021/05/03 05:57:09;;;;;;;13.23;11.48;;;;;;;11.36;71.93;98348.97;5070709;28;20036;-60
2021/05/03 05:59:35;;;;;;;13.80;12.50;;;;;;;11.41;71.79;98346.63;5071046;28;20064;-60
2021/05/03 06:02:00;;;;;;;13.93;12.52;;;;;;;11.37;72.39;98363.22;5070738;28;20028;-62
2021/05/03 06:04:26;;;;;;;14.18;12.20;;;;;;;11.26;72.50;98345.63;5086089;28;20473;-60
2021/05/03 06:06:53;;;;;;;13.35;12.10;;;;;;;11.40;72.42;98338.78;5070840;28;20503;-59
2021/05/03 06:09:18;;;;;;;13.20;11.82;;;;;;;11.52;72.00;98344.66;5070750;28;20090;-59
2021/05/03 06:11:44;;;;;;;13.35;12.00;;;;;;;11.57;72.00;98345.78;5070757;28;20158;-60
2021/05/03 06:14:10;;;;;;;13.95;12.52;;;;;;;11.51;72.40;98338.44;5070397;28;20036;-62
2021/05/03 06:16:35;;;;;;;13.38;12.07;;;;;;;11.42;72.85;98332.22;5070645;28;20028;-56
2021/05/03 06:19:01;;;;;;;12.15;10.85;;;;;;;11.40;72.72;98326.19;5070437;28;20028;-52
2021/05/03 06:21:26;;;;;;;13.90;11.70;;;;;;;11.46;73.03;98330.06;5070201;28;20036;-58
2021/05/03 06:23:52;;;;;;;11.98;10.77;;;;;;;11.49;73.29;98317.19;5070082;28;20060;-59
2021/05/03 06:26:18;;;;;;;11.75;10.63;;;;;;;11.29;73.03;98267.59;5070537;28;20044;-57
2021/05/03 06:28:43;;;;;;;11.95;10.50;;;;;;;11.56;73.26;98328.03;5069732;28;20399;-57
2021/05/03 06:31:09;;;;;;;10.52;9.18;;;;;;;11.21;73.68;98257.69;5070385;28;20036;-55
2021/05/03 06:33:35;;;;;;;13.93;10.73;;;;;;;11.71;73.25;98317.50;5070371;28;20069;-52
2021/05/03 06:36:01;;;;;;;11.23;10.02;;;;;;;11.74;73.38;98311.81;5068461;28;20036;-59
2021/05/03 06:38:26;;;;;;;10.32;9.18;;;;;;;11.75;73.51;98299.22;5066621;28;20045;-58
2021/05/03 06:40:52;;;;;;;10.45;9.35;;;;;;;11.73;73.53;98291.38;5032647;28;20045;-60
2021/05/03 06:43:18;;;;;;;11.30;9.43;;;;;;;11.85;73.48;98305.25;5030179;28;20029;-60
2021/05/03 06:45:44;;;;;;;10.10;9.07;;;;;;;11.62;73.47;98254.16;5030022;28;20042;-57
2021/05/03 06:48:09;;;;;;;10.98;9.75;;;;;;;11.88;73.69;98282.63;5030435;28;20068;-61
2021/05/03 06:50:37;;;;;;;12.95;10.40;;;;;;;11.94;73.97;98291.84;5030145;28;20033;-55
2021/05/03 06:53:02;;;;;;;12.05;10.52;;;;;;;11.88;73.65;98272.75;5030087;28;20029;-58
2021/05/03 06:55:28;;;;;;;10.88;9.82;;;;;;;12.08;73.49;98288.50;5030262;28;20049;-59
2021/05/03 06:57:54;;;;;;;11.27;10.18;;;;;;;12.13;73.20;98278.06;5030177;28;20029;-50
2021/05/03 07:00:21;;;;;;;11.73;10.63;;;;;;;12.14;73.77;98276.22;5029796;28;20033;-56
2021/05/03 07:02:46;;;;;;;11.93;10.73;;;;;;;12.17;73.34;98255.25;5029662;28;20501;-58
2021/05/03 07:05:12;;;;;;;12.45;11.20;;;;;;;12.30;73.36;98264.63;5030126;28;20156;-63
2021/05/03 07:07:39;;;;;;;12.07;10.95;;;;;;;12.42;73.57;98270.41;5030518;28;20033;-59
2021/05/03 07:10:06;;;;;;;14.40;12.85;;;;;;;12.57;72.91;98276.72;5029867;28;20063;-59
2021/05/03 07:12:40;;;;;;;13.55;12.15;;;;;;;12.59;73.97;98265.81;5029972;28;20029;-58
2021/05/03 07:15:07;;;;;;;12.50;11.20;;;;;;;12.63;72.67;98269.81;5029933;28;20039;-59
2021/05/03 07:17:32;;;;;;;13.73;12.23;;;;;;;12.68;72.64;98237.91;5029882;28;20252;-58
2021/05/03 07:20:00;;;;;;;13.43;12.10;;;;;;;12.70;72.39;98235.88;5029900;28;20507;-60
2021/05/03 07:22:27;;;;;;;13.18;11.50;;;;;;;12.89;72.64;98231.06;5029941;28;20026;-57
2021/05/03 07:24:55;;;;;;;13.43;11.93;;;;;;;12.99;72.26;98234.34;5029801;28;20462;-59
2021/05/03 07:27:21;;;;;;;16.08;12.40;;;;;;;13.10;72.32;98238.47;5029929;28;20042;-58
2021/05/03 07:29:46;;;;;;;13.40;12.02;;;;;;;13.17;72.05;98219.78;5029512;28;20041;-58
2021/05/03 07:32:12;;;;;;;15.45;12.02;;;;;;;13.28;71.49;98221.22;5029953;28;20406;-54
2021/05/03 07:34:37;;;;;;;18.02;13.55;;;;;;;13.37;71.51;98224.66;5029746;28;20075;-56
2021/05/03 07:37:05;;;;;;;15.05;12.05;;;;;;;13.49;70.92;98209.78;5029634;28;20064;-57
2021/05/03 07:39:31;;;;;;;14.27;12.75;;;;;;;13.67;70.56;98212.16;5031359;28;20070;-56
2021/05/03 07:41:56;;;;;;;15.13;13.23;;;;;;;13.75;70.89;98208.53;5033472;28;20099;-57
2021/05/03 07:44:23;;;;;;;15.65;13.20;;;;;;;13.85;70.54;98209.09;5033030;28;20612;-59
2021/05/03 07:46:48;;;;;;;16.35;13.15;;;;;;;13.88;70.58;98214.09;5033401;28;20052;-58
2021/05/03 07:49:14;;;;;;;17.45;14.18;;;;;;;13.92;70.62;98196.56;5033515;28;20509;-60
2021/05/03 07:51:39;;;;;;;16.00;14.15;;;;;;;13.96;70.38;98188.97;5033608;28;20037;-58
2021/05/03 07:54:05;;;;;;;20.80;15.52;;;;;;;13.82;70.18;98165.56;5033435;28;20172;-53
2021/05/03 07:56:32;;;;;;;18.10;15.65;;;;;;;13.96;70.64;98194.34;5031566;28;20040;-58
2021/05/03 07:58:58;;;;;;;18.35;16.40;;;;;;;14.00;70.51;98176.81;5031116;28;20091;-59
2021/05/03 08:01:24;;;;;;;19.73;15.32;;;;;;;13.96;70.38;98163.91;5032578;28;20376;-56
2021/05/03 08:03:50;;;;;;;19.27;16.30;;;;;;;14.07;70.68;98179.59;5032901;28;20029;-56
2021/05/03 08:06:16;;;;;;;21.08;15.73;;;;;;;14.17;70.42;98172.03;5032400;28;20095;-56
2021/05/03 08:08:44;;;;;;;16.20;14.52;;;;;;;14.22;70.49;98166.09;5032915;28;20111;-59
2021/05/03 08:11:10;;;;;;;18.95;15.73;;;;;;;14.32;70.20;98165.81;5032618;28;20125;-60
2021/05/03 08:13:37;;;;;;;20.90;14.82;;;;;;;14.36;70.34;98167.09;5032422;28;20037;-58
2021/05/03 08:16:04;;;;;;;19.02;15.77;;;;;;;14.46;70.22;98156.03;5032520;28;20066;-54
2021/05/03 08:18:30;;;;;;;17.92;15.05;;;;;;;14.49;69.86;98145.72;5032390;28;20033;-56
2021/05/03 08:20:57;;;;;;;20.23;15.88;;;;;;;14.65;69.65;98141.09;5032522;28;20083;-58
2021/05/03 08:23:24;;;;;;;18.75;15.80;;;;;;;14.66;69.80;98137.38;5032035;28;20115;-56
2021/05/03 08:25:52;;;;;;;17.92;15.73;;;;;;;14.78;69.81;98135.03;5032091;28;20124;-58
2021/05/03 08:28:18;;;;;;;21.42;15.95;;;;;;;14.94;69.30;98133.94;5032156;28;20508;-56
2021/05/03 08:30:45;;;;;;;20.38;16.33;;;;;;;14.96;68.71;98104.94;5032208;28;20040;-60
2021/05/03 08:33:11;;;;;;;17.83;16.02;;;;;;;14.97;68.43;98113.84;5031911;28;20371;-56
2021/05/03 08:35:37;;;;;;;20.70;15.73;;;;;;;15.01;68.71;98104.34;5032370;28;20043;-60
2021/05/03 08:38:03;;;;;;;19.73;16.13;;;;;;;15.07;69.27;98125.97;5032305;28;20120;-59
2021/05/03 08:40:32;;;;;;;24.63;17.40;;;;;;;14.82;69.28;98068.13;5046905;28;20124;-57
2021/05/03 08:43:01;;;;;;;21.70;16.45;;;;;;;15.20;68.62;98122.53;5032149;28;20034;-53
2021/05/03 08:45:26;;;;;;;24.30;18.02;;;;;;;15.28;68.49;98116.19;5031919;28;20103;-61
2021/05/03 08:48:02;;;;;;;20.50;17.40;;;;;;;15.26;68.53;98114.69;5031246;28;20513;-58
2021/05/03 08:53:21;;;;;;;20.42;17.33;;;;;;;15.34;68.57;98125.34;5031820;28;20048;-58
2021/05/03 08:55:46;;;;;;;19.25;17.33;;;;;;;15.33;68.77;98108.31;5031988;28;20046;-60
2021/05/03 08:58:12;;;;;;;19.48;17.05;;;;;;;15.40;68.82;98104.81;5031901;28;20041;-57
2021/05/03 09:00:38;;;;;;;20.55;17.23;;;;;;;15.12;68.58;98058.00;5031721;28;20029;-62
2021/05/03 09:03:10;;;;;;;20.80;16.85;;;;;;;15.51;68.88;98101.59;5031892;28;20401;-59
2021/05/03 09:05:36;;;;;;;19.27;15.55;;;;;;;15.49;68.51;98090.19;5034593;28;20084;-59
2021/05/03 09:08:03;;;;;;;19.27;17.27;;;;;;;15.71;68.32;98101.69;5044710;28;20041;-60
2021/05/03 09:10:30;;;;;;;19.55;17.17;;;;;;;15.86;68.01;98095.34;5029572;28;20561;-56
2021/05/03 09:13:07;;;;;;;19.23;16.20;;;;;;;16.07;67.71;98092.56;5041765;28;20033;-61
2021/05/03 09:15:33;;;;;;;20.38;16.15;;;;;;;15.87;67.10;98051.94;5049163;28;20451;-61
2021/05/03 09:17:59;;;;;;;23.25;15.95;;;;;;;16.21;66.82;98085.31;5050981;28;20029;-60
2021/05/03 09:20:26;;;;;;;17.52;15.63;;;;;;;16.29;66.86;98083.47;5042634;28;20037;-55
2021/05/03 09:25:25;;;;;;;19.40;15.55;;;;;;;16.41;66.55;98084.56;5038251;28;20057;-61
2021/05/03 09:28:13;;;;;;;18.10;16.20;;;;;;;16.43;66.60;98068.13;5042343;28;20111;-62
2021/05/03 09:30:54;;;;;;;18.30;16.08;;;;;;;16.53;66.33;98079.38;5042909;28;20045;-62
2021/05/03 09:33:27;;;;;;;18.42;16.23;;;;;;;16.58;66.26;98094.94;5050843;28;20032;-64
2021/05/03 09:36:01;;;;;;;20.00;16.10;;;;;;;16.50;66.45;98074.34;5036221;28;20045;-62
2021/05/03 09:38:41;;;;;;;18.67;16.25;;;;;;;16.54;66.94;98085.59;5031337;28;20116;-60
2021/05/03 09:41:26;;;;;;;20.05;16.50;;;;;;;16.60;66.57;98073.97;5030991;28;20446;-63
2021/05/03 09:44:05;;;;;;;19.42;16.48;;;;;;;16.50;66.28;98067.09;5030814;28;20025;-62
2021/05/03 09:46:32;;;;;;;18.25;15.82;;;;;;;16.62;66.20;98071.88;5048057;28;20167;-58
2021/05/03 09:49:12;;;;;;;18.23;15.95;;;;;;;16.81;65.87;98072.94;5047665;28;20033;-60
2021/05/03 09:51:41;;;;;;;19.75;16.58;;;;;;;16.88;65.57;98065.66;5036362;28;20044;-53
2021/05/03 09:54:10;;;;;;;19.00;16.70;;;;;;;17.02;65.42;98065.72;5044187;28;20029;-58
2021/05/03 09:56:48;;;;;;;20.38;16.10;;;;;;;17.25;65.38;98067.13;5051095;28;20044;-60
2021/05/03 09:59:30;;;;;;;17.25;15.48;;;;;;;17.50;64.73;98068.13;5050874;28;20091;-60
2021/05/03 10:02:20;;;;;;;18.48;16.52;;;;;;;17.72;63.96;98069.72;5050234;28;20124;-60
2021/05/03 10:04:51;;;;;;;17.60;15.70;;;;;;;17.90;63.04;98077.97;5050775;28;20083;-61
2021/05/03 10:07:20;;;;;;;17.80;16.00;;;;;;;18.12;62.43;98071.44;5050884;28;20067;-61
2021/05/03 10:09:48;;;;;;;18.60;16.23;;;;;;;18.19;62.27;98069.53;5050508;28;20032;-60
2021/05/03 10:12:18;;;;;;;19.33;15.85;;;;;;;18.20;62.03;98082.00;5048093;28;20033;-61
2021/05/03 10:14:49;;;;;;;16.50;14.80;;;;;;;18.08;62.31;98068.31;5029994;28;20041;-59
2021/05/03 10:17:17;;;;;;;17.20;15.20;;;;;;;17.96;62.57;98065.44;5027274;28;20467;-62
2021/05/03 10:19:43;;;;;;;19.25;15.48;;;;;;;17.71;62.66;98036.38;5028974;28;20033;-58
2021/05/03 10:22:21;;;;;;;20.45;15.05;;;;;;;17.97;63.11;98066.28;5030725;28;20029;-61
2021/05/03 10:24:55;;;;;;;16.60;14.20;;;;;;;17.89;63.22;98076.31;5030679;28;20049;-58
2021/05/03 10:27:22;;;;;;;19.52;16.00;;;;;;;17.74;63.48;98068.47;5030609;28;20091;-56
2021/05/03 10:29:49;;;;;;;17.95;15.18;;;;;;;17.67;63.67;98072.22;5030584;28;20029;-61
2021/05/03 10:32:23;;;;;;;16.42;14.35;;;;;;;17.62;64.07;98081.81;5030688;28;20064;-59
2021/05/03 10:34:51;;;;;;;17.70;14.82;;;;;;;17.35;64.52;98054.81;5030465;28;20033;-60
2021/05/03 10:37:43;;;;;;;17.20;14.55;;;;;;;17.51;64.74;98068.94;5030323;28;20056;-61
2021/05/03 10:40:35;;;;;;;21.63;15.32;;;;;;;17.44;64.97;98070.84;5028939;28;20045;-59
2021/05/03 10:43:04;;;;;;;19.98;15.20;;;;;;;17.32;65.45;98074.16;5024456;28;20069;-59
2021/05/03 10:46:01;;;;;;;16.50;14.73;;;;;;;17.36;65.55;98061.91;5030466;28;20106;-61
2021/05/03 10:48:40;;;;;;;18.35;15.00;;;;;;;17.45;65.14;98054.38;5030199;28;20120;-61
2021/05/03 10:51:09;;;;;;;18.60;13.93;;;;;;;17.81;64.27;98040.53;5030236;28;20091;-59
2021/05/03 10:53:38;;;;;;;16.27;14.52;;;;;;;18.38;62.56;98023.56;5030185;28;20041;-58
2021/05/03 10:56:09;;;;;;;16.40;14.70;;;;;;;19.10;59.79;97997.97;5030208;28;20558;-58
2021/05/03 10:58:53;;;;;;;17.35;13.93;;;;;;;20.16;58.15;98026.81;5029963;28;20570;-60
2021/05/03 11:01:19;;;;;;;16.02;13.77;;;;;;;20.27;56.83;98006.97;5030285;28;20033;-61
2021/05/03 11:03:54;;;;;;;16.92;13.35;;;;;;;20.82;55.96;98035.00;5030262;28;20143;-57
2021/05/03 11:06:35;;;;;;;16.27;13.13;;;;;;;21.17;54.49;98015.16;5030385;28;20038;-58
2021/05/03 11:09:30;;;;;;;11.77;10.68;;;;;;;21.58;53.16;98015.22;5029844;28;20497;-60
2021/05/03 11:12:00;;;;;;;16.15;11.90;;;;;;;21.70;52.47;98006.19;5021046;28;20041;-60
2021/05/03 11:14:29;;;;;;;14.73;11.75;;;;;;;21.69;52.07;97993.66;5032065;28;20056;-59
2021/05/03 11:17:04;;;;;;;14.80;12.07;;;;;;;21.70;51.76;97989.88;5034150;28;20060;-58
2021/05/03 11:19:38;;;;;;;12.90;11.52;;;;;;;21.69;51.97;97997.22;5032052;28;20025;-60
2021/05/03 11:22:07;;;;;;;12.35;11.07;;;;;;;21.83;51.74;98013.28;5033534;28;20037;-58
2021/05/03 11:24:39;;;;;;;12.82;11.32;;;;;;;22.05;50.92;98003.34;5033987;28;20162;-58
2021/05/03 11:27:12;;;;;;;11.35;10.25;;;;;;;22.17;50.34;98011.47;5033606;28;20285;-59
2021/05/03 11:30:15;;;;;;;13.73;11.27;;;;;;;22.08;50.23;97993.88;5033645;28;20036;-60
2021/05/03 11:32:35;;;;;;;11.88;10.68;;;;;;;22.29;49.70;97991.50;5033344;28;20394;-59
2021/05/03 11:37:40;;;;;;;13.32;10.18;;;;;;;22.34;49.54;97977.97;5033732;28;20065;-58
2021/05/03 11:40:20;;;;;;;12.50;9.35;;;;;;;22.03;49.41;97939.28;5033272;28;20033;-57
2021/05/03 11:45:24;;;;;;;12.75;10.45;;;;;;;22.00;49.26;97964.31;5033698;28;20037;-58
2021/05/03 11:47:52;;;;;;;10.75;9.38;;;;;;;21.78;49.23;97962.25;5033317;28;20037;-58
2021/05/03 11:50:23;;;;;;;11.30;9.10;;;;;;;21.23;49.98;97907.25;5032949;28;20037;-60
2021/05/03 11:52:49;;;;;;;11.23;9.40;;;;;;;21.35;50.18;97965.19;5033217;28;20084;-58